CTN415 EDDF-LDZA
Flight info
| Callsign | CTN415 |
|---|---|
| Flight time | 1h 8m |
| Altitude | 35000 |
| Route | CINDY8S/18 CINDY Z74 LAMPU DCT NOMBO Y161 MAH DCT LATLO DCT OBEDI DCT KLAGY DCT LULUD |
| Aircraft | A319/M-SDE2FGIJ1RWY/LB1 |
Departure
| Time | 2026-05-04 17:42 |
|---|---|
| Airport | Frankfurt Main Airport (EDDF) |
Arrival
| Time | 2026-05-04 18:50 |
|---|---|
| Airport | Zagreb Franjo Tuđman International Airport (LDZA) |
| Time | Latitude | Longitude | Altitude | Speed | Heading |
|---|---|---|---|---|---|
| 2026-05-04 17:01 | 50.04040 | 8.55546 | 351 ft | 0 kts | 160° |
| 2026-05-04 17:35 | 50.03977 | 8.55575 | 352 ft | 9 kts | 186° |
| 2026-05-04 17:35 | 50.03905 | 8.55351 | 357 ft | 15 kts | 249° |
| 2026-05-04 17:35 | 50.03866 | 8.55187 | 357 ft | 18 kts | 249° |
| 2026-05-04 17:36 | 50.03819 | 8.54994 | 355 ft | 20 kts | 250° |
| 2026-05-04 17:36 | 50.03769 | 8.54782 | 349 ft | 21 kts | 250° |
| 2026-05-04 17:36 | 50.03716 | 8.54560 | 349 ft | 23 kts | 250° |
| 2026-05-04 17:36 | 50.03660 | 8.54324 | 345 ft | 24 kts | 249° |
| 2026-05-04 17:37 | 50.03602 | 8.54082 | 349 ft | 24 kts | 249° |
| 2026-05-04 17:37 | 50.03543 | 8.53836 | 338 ft | 25 kts | 249° |
| 2026-05-04 17:37 | 50.03482 | 8.53583 | 338 ft | 25 kts | 250° |
| 2026-05-04 17:37 | 50.03443 | 8.53420 | 336 ft | 13 kts | 250° |
| 2026-05-04 17:38 | 50.03412 | 8.53288 | 338 ft | 13 kts | 250° |
| 2026-05-04 17:38 | 50.03379 | 8.53152 | 336 ft | 14 kts | 249° |
| 2026-05-04 17:38 | 50.03343 | 8.53002 | 334 ft | 15 kts | 250° |
| 2026-05-04 17:38 | 50.03308 | 8.52855 | 334 ft | 10 kts | 250° |
| 2026-05-04 17:39 | 50.03277 | 8.52721 | 334 ft | 7 kts | 250° |
| 2026-05-04 17:39 | 50.03260 | 8.52652 | 333 ft | 6 kts | 248° |
| 2026-05-04 17:39 | 50.03232 | 8.52600 | 334 ft | 7 kts | 208° |
| 2026-05-04 17:40 | 50.03193 | 8.52594 | 335 ft | 0 kts | 179° |
| 2026-05-04 17:41 | 50.03188 | 8.52594 | 335 ft | 2 kts | 179° |
| 2026-05-04 17:41 | 50.03047 | 8.52597 | 335 ft | 57 kts | 179° |
| 2026-05-04 17:41 | 50.02399 | 8.52603 | 335 ft | 127 kts | 180° |
| 2026-05-04 17:41 | 50.01322 | 8.52613 | 386 ft | 175 kts | 181° |
| 2026-05-04 17:42 | 50.00110 | 8.52634 | 1064 ft | 173 kts | 181° |
| 2026-05-04 17:42 | 49.98901 | 8.52640 | 1745 ft | 178 kts | 180° |
| 2026-05-04 17:42 | 49.97588 | 8.52733 | 2112 ft | 201 kts | 168° |
| 2026-05-04 17:42 | 49.96308 | 8.53827 | 2433 ft | 224 kts | 133° |
| 2026-05-04 17:43 | 49.95450 | 8.55930 | 3061 ft | 234 kts | 118° |
| 2026-05-04 17:43 | 49.94670 | 8.58139 | 4024 ft | 234 kts | 119° |
| 2026-05-04 17:43 | 49.94097 | 8.60470 | 4929 ft | 239 kts | 102° |
| 2026-05-04 17:43 | 49.93925 | 8.63177 | 5411 ft | 263 kts | 95° |
| 2026-05-04 17:44 | 49.93788 | 8.66071 | 6183 ft | 273 kts | 100° |
| 2026-05-04 17:44 | 49.93232 | 8.68879 | 7032 ft | 274 kts | 120° |
| 2026-05-04 17:44 | 49.92111 | 8.71253 | 7919 ft | 274 kts | 139° |
| 2026-05-04 17:44 | 49.90589 | 8.73050 | 8824 ft | 275 kts | 148° |
| 2026-05-04 17:45 | 49.89053 | 8.74862 | 9741 ft | 281 kts | 140° |
| 2026-05-04 17:45 | 49.88172 | 8.76373 | 10247 ft | 290 kts | 131° |
| 2026-05-04 17:45 | 49.87068 | 8.79160 | 10555 ft | 317 kts | 122° |
| 2026-05-04 17:45 | 49.85585 | 8.83305 | 11220 ft | 336 kts | 122° |
| 2026-05-04 17:46 | 49.84823 | 8.85438 | 11697 ft | 340 kts | 122° |
| 2026-05-04 17:46 | 49.83666 | 8.88652 | 12451 ft | 345 kts | 122° |
| 2026-05-04 17:46 | 49.82483 | 8.91933 | 13207 ft | 350 kts | 122° |
| 2026-05-04 17:46 | 49.81279 | 8.95253 | 13914 ft | 355 kts | 122° |
| 2026-05-04 17:47 | 49.80063 | 8.98594 | 14589 ft | 359 kts | 122° |
| 2026-05-04 17:47 | 49.78842 | 9.01943 | 15267 ft | 362 kts | 122° |
| 2026-05-04 17:47 | 49.77592 | 9.05363 | 15938 ft | 366 kts | 122° |
| 2026-05-04 17:47 | 49.76409 | 9.08885 | 16585 ft | 372 kts | 115° |
| 2026-05-04 17:48 | 49.75625 | 9.12735 | 17229 ft | 379 kts | 105° |
| 2026-05-04 17:48 | 49.74863 | 9.16638 | 17875 ft | 380 kts | 114° |
| 2026-05-04 17:48 | 49.73647 | 9.20266 | 18489 ft | 381 kts | 126° |
| 2026-05-04 17:48 | 49.72018 | 9.23492 | 19074 ft | 381 kts | 134° |
| 2026-05-04 17:49 | 49.70260 | 9.26582 | 19671 ft | 384 kts | 134° |
| 2026-05-04 17:49 | 49.68486 | 9.29707 | 20259 ft | 387 kts | 134° |
| 2026-05-04 17:49 | 49.66714 | 9.32830 | 20844 ft | 390 kts | 134° |
| 2026-05-04 17:49 | 49.64911 | 9.36007 | 21429 ft | 393 kts | 134° |
| 2026-05-04 17:50 | 49.63094 | 9.39185 | 22001 ft | 395 kts | 136° |
| 2026-05-04 17:50 | 49.61079 | 9.41985 | 22550 ft | 395 kts | 146° |
| 2026-05-04 17:50 | 49.58773 | 9.44276 | 23096 ft | 396 kts | 152° |
| 2026-05-04 17:50 | 49.56398 | 9.46441 | 23645 ft | 397 kts | 153° |
| 2026-05-04 17:51 | 49.54005 | 9.48618 | 24082 ft | 400 kts | 153° |
| 2026-05-04 17:51 | 49.51603 | 9.50805 | 24518 ft | 403 kts | 153° |
| 2026-05-04 17:51 | 49.49183 | 9.53007 | 24945 ft | 405 kts | 153° |
| 2026-05-04 17:51 | 49.46747 | 9.55221 | 25377 ft | 408 kts | 153° |
| 2026-05-04 17:52 | 49.44299 | 9.57447 | 25801 ft | 410 kts | 153° |
| 2026-05-04 17:52 | 49.41836 | 9.59684 | 26216 ft | 412 kts | 153° |
| 2026-05-04 17:52 | 49.39360 | 9.61932 | 26634 ft | 415 kts | 153° |
| 2026-05-04 17:52 | 49.36867 | 9.64194 | 27037 ft | 417 kts | 153° |
| 2026-05-04 17:53 | 49.34406 | 9.66593 | 27438 ft | 423 kts | 147° |
| 2026-05-04 17:53 | 49.32177 | 9.69582 | 27850 ft | 430 kts | 139° |
| 2026-05-04 17:53 | 49.30073 | 9.72820 | 28268 ft | 432 kts | 139° |
| 2026-05-04 17:53 | 49.27936 | 9.76095 | 28672 ft | 434 kts | 139° |
| 2026-05-04 17:54 | 49.25788 | 9.79371 | 29065 ft | 436 kts | 139° |
| 2026-05-04 17:54 | 49.23627 | 9.82661 | 29394 ft | 440 kts | 139° |
| 2026-05-04 17:54 | 49.21445 | 9.85978 | 29720 ft | 443 kts | 139° |
| 2026-05-04 17:54 | 49.19246 | 9.89317 | 30064 ft | 446 kts | 139° |
| 2026-05-04 17:55 | 49.17062 | 9.92628 | 30366 ft | 448 kts | 139° |
| 2026-05-04 17:55 | 49.14829 | 9.96010 | 30670 ft | 450 kts | 139° |
| 2026-05-04 17:55 | 49.12621 | 9.99347 | 30972 ft | 452 kts | 139° |
| 2026-05-04 17:55 | 49.10380 | 10.02734 | 31270 ft | 454 kts | 139° |
| 2026-05-04 17:56 | 49.08135 | 10.06126 | 31587 ft | 454 kts | 139° |
| 2026-05-04 17:56 | 49.05892 | 10.09504 | 32057 ft | 452 kts | 140° |
| 2026-05-04 17:56 | 49.03632 | 10.12815 | 32510 ft | 450 kts | 141° |
| 2026-05-04 17:56 | 49.01334 | 10.16078 | 32946 ft | 448 kts | 141° |
| 2026-05-04 17:57 | 48.99062 | 10.19245 | 33345 ft | 447 kts | 141° |
| 2026-05-04 17:57 | 48.96759 | 10.22440 | 33759 ft | 446 kts | 141° |
| 2026-05-04 17:57 | 48.94486 | 10.25602 | 34171 ft | 445 kts | 141° |
| 2026-05-04 17:57 | 48.92199 | 10.28802 | 34526 ft | 444 kts | 141° |
| 2026-05-04 17:58 | 48.89946 | 10.31973 | 34858 ft | 445 kts | 140° |
| 2026-05-04 17:58 | 48.87665 | 10.35197 | 34968 ft | 444 kts | 140° |
| 2026-05-04 17:58 | 48.83180 | 10.41524 | 34989 ft | 439 kts | 140° |
| 2026-05-04 17:59 | 48.78877 | 10.48058 | 34995 ft | 440 kts | 137° |
| 2026-05-04 18:00 | 48.72638 | 10.58314 | 34985 ft | 438 kts | 136° |
| 2026-05-04 18:00 | 48.68497 | 10.65011 | 34989 ft | 438 kts | 136° |
| 2026-05-04 18:01 | 48.64292 | 10.71677 | 34979 ft | 437 kts | 136° |
| 2026-05-04 18:01 | 48.60101 | 10.78294 | 34974 ft | 437 kts | 137° |
| 2026-05-04 18:02 | 48.53788 | 10.88324 | 34942 ft | 438 kts | 136° |
| 2026-05-04 18:02 | 48.49626 | 10.95010 | 34934 ft | 438 kts | 136° |
| 2026-05-04 18:03 | 48.45435 | 11.01641 | 34939 ft | 438 kts | 137° |
| 2026-05-04 18:03 | 48.41179 | 11.08241 | 34939 ft | 437 kts | 137° |
| 2026-05-04 18:04 | 48.36947 | 11.14782 | 34941 ft | 437 kts | 137° |
| 2026-05-04 18:05 | 48.30605 | 11.24616 | 34926 ft | 437 kts | 137° |
| 2026-05-04 18:05 | 48.26481 | 11.31327 | 34930 ft | 440 kts | 129° |
| 2026-05-04 18:06 | 48.21783 | 11.43239 | 34933 ft | 443 kts | 122° |
| 2026-05-04 18:06 | 48.18737 | 11.51299 | 34934 ft | 443 kts | 122° |
| 2026-05-04 18:07 | 48.15683 | 11.59337 | 34937 ft | 444 kts | 122° |
| 2026-05-04 18:07 | 48.12630 | 11.67325 | 34926 ft | 443 kts | 123° |
| 2026-05-04 18:08 | 48.09572 | 11.75309 | 34930 ft | 443 kts | 123° |
| 2026-05-04 18:08 | 48.06506 | 11.83309 | 34930 ft | 443 kts | 123° |
| 2026-05-04 18:09 | 48.00350 | 11.99285 | 34911 ft | 442 kts | 123° |
| 2026-05-04 18:10 | 47.97283 | 12.07200 | 34851 ft | 444 kts | 123° |
| 2026-05-04 18:10 | 47.95741 | 12.11172 | 34599 ft | 438 kts | 123° |
| 2026-05-04 18:10 | 47.94215 | 12.15096 | 34354 ft | 434 kts | 123° |
| 2026-05-04 18:11 | 47.92700 | 12.18987 | 34117 ft | 433 kts | 123° |
| 2026-05-04 18:11 | 47.91188 | 12.22858 | 33866 ft | 432 kts | 123° |
| 2026-05-04 18:11 | 47.89685 | 12.26699 | 33593 ft | 432 kts | 123° |
| 2026-05-04 18:11 | 47.88170 | 12.30568 | 33317 ft | 432 kts | 123° |
| 2026-05-04 18:12 | 47.86656 | 12.34430 | 33057 ft | 433 kts | 123° |
| 2026-05-04 18:12 | 47.85136 | 12.38306 | 32885 ft | 433 kts | 123° |
| 2026-05-04 18:12 | 47.82091 | 12.46057 | 32924 ft | 434 kts | 123° |
| 2026-05-04 18:13 | 47.79037 | 12.53811 | 32926 ft | 434 kts | 123° |
| 2026-05-04 18:14 | 47.74448 | 12.65431 | 32925 ft | 434 kts | 123° |
| 2026-05-04 18:14 | 47.71376 | 12.73148 | 32908 ft | 434 kts | 123° |
| 2026-05-04 18:15 | 47.64060 | 12.87080 | 32906 ft | 429 kts | 138° |
| 2026-05-04 18:16 | 47.59835 | 12.93325 | 32911 ft | 429 kts | 138° |
| 2026-05-04 18:16 | 47.55608 | 12.99553 | 32921 ft | 429 kts | 138° |
| 2026-05-04 18:17 | 47.49262 | 13.08889 | 32916 ft | 429 kts | 138° |
| 2026-05-04 18:18 | 47.42896 | 13.18239 | 32936 ft | 430 kts | 138° |
| 2026-05-04 18:18 | 47.38646 | 13.24453 | 32946 ft | 430 kts | 138° |
| 2026-05-04 18:19 | 47.32331 | 13.33807 | 32965 ft | 431 kts | 132° |
| 2026-05-04 18:19 | 47.28553 | 13.40696 | 32960 ft | 432 kts | 131° |
| 2026-05-04 18:20 | 47.24766 | 13.47583 | 32976 ft | 433 kts | 131° |
| 2026-05-04 18:20 | 47.20969 | 13.54460 | 32975 ft | 433 kts | 131° |
| 2026-05-04 18:21 | 47.17184 | 13.61292 | 32977 ft | 434 kts | 132° |
| 2026-05-04 18:21 | 47.13349 | 13.68204 | 32998 ft | 435 kts | 132° |
| 2026-05-04 18:22 | 47.09541 | 13.75054 | 32999 ft | 435 kts | 131° |
| 2026-05-04 18:22 | 47.05713 | 13.81926 | 32999 ft | 435 kts | 132° |
| 2026-05-04 18:23 | 47.01877 | 13.88794 | 33016 ft | 435 kts | 132° |
| 2026-05-04 18:23 | 46.98047 | 13.95636 | 33009 ft | 436 kts | 132° |
| 2026-05-04 18:24 | 46.94186 | 14.02495 | 33012 ft | 436 kts | 132° |
| 2026-05-04 18:24 | 46.90330 | 14.09347 | 32998 ft | 436 kts | 131° |
| 2026-05-04 18:25 | 46.86459 | 14.16218 | 33002 ft | 436 kts | 131° |
| 2026-05-04 18:25 | 46.82590 | 14.23054 | 33006 ft | 436 kts | 132° |
| 2026-05-04 18:26 | 46.78723 | 14.29873 | 33009 ft | 436 kts | 132° |
| 2026-05-04 18:26 | 46.76791 | 14.33275 | 32685 ft | 435 kts | 132° |
| 2026-05-04 18:26 | 46.74856 | 14.36678 | 31895 ft | 437 kts | 131° |
| 2026-05-04 18:27 | 46.72931 | 14.40055 | 31092 ft | 440 kts | 131° |
| 2026-05-04 18:27 | 46.70949 | 14.43526 | 30283 ft | 442 kts | 131° |
| 2026-05-04 18:27 | 46.68999 | 14.46942 | 29639 ft | 440 kts | 131° |
| 2026-05-04 18:27 | 46.67065 | 14.50330 | 29019 ft | 436 kts | 131° |
| 2026-05-04 18:28 | 46.65118 | 14.53735 | 28419 ft | 432 kts | 131° |
| 2026-05-04 18:28 | 46.63203 | 14.57091 | 27791 ft | 429 kts | 130° |
| 2026-05-04 18:28 | 46.61611 | 14.60745 | 27203 ft | 428 kts | 119° |
| 2026-05-04 18:28 | 46.60242 | 14.64577 | 26584 ft | 426 kts | 118° |
| 2026-05-04 18:29 | 46.58887 | 14.68380 | 26041 ft | 422 kts | 119° |
| 2026-05-04 18:29 | 46.57547 | 14.72150 | 25543 ft | 417 kts | 118° |
| 2026-05-04 18:29 | 46.56240 | 14.75833 | 25037 ft | 414 kts | 118° |
| 2026-05-04 18:29 | 46.54922 | 14.79540 | 24517 ft | 412 kts | 118° |
| 2026-05-04 18:30 | 46.52307 | 14.86873 | 23584 ft | 406 kts | 118° |
| 2026-05-04 18:30 | 46.51006 | 14.90507 | 23072 ft | 403 kts | 118° |
| 2026-05-04 18:30 | 46.49711 | 14.94127 | 22597 ft | 400 kts | 119° |
| 2026-05-04 18:31 | 46.48446 | 14.97660 | 22119 ft | 396 kts | 119° |
| 2026-05-04 18:31 | 46.47176 | 15.01205 | 21691 ft | 392 kts | 118° |
| 2026-05-04 18:31 | 46.45930 | 15.04671 | 21259 ft | 388 kts | 120° |
| 2026-05-04 18:31 | 46.44680 | 15.08148 | 20765 ft | 386 kts | 120° |
| 2026-05-04 18:32 | 46.43434 | 15.11613 | 20256 ft | 384 kts | 119° |
| 2026-05-04 18:32 | 46.42214 | 15.14999 | 19836 ft | 381 kts | 120° |
| 2026-05-04 18:32 | 46.40985 | 15.18396 | 19439 ft | 377 kts | 119° |
| 2026-05-04 18:32 | 46.40175 | 15.20628 | 19133 ft | 374 kts | 119° |
| 2026-05-04 18:33 | 46.38580 | 15.25029 | 18556 ft | 370 kts | 121° |
| 2026-05-04 18:33 | 46.37382 | 15.28332 | 18117 ft | 367 kts | 119° |
| 2026-05-04 18:33 | 46.36600 | 15.30487 | 17770 ft | 365 kts | 120° |
| 2026-05-04 18:33 | 46.35422 | 15.33727 | 17309 ft | 362 kts | 120° |
| 2026-05-04 18:34 | 46.34251 | 15.36948 | 16840 ft | 360 kts | 119° |
| 2026-05-04 18:34 | 46.33093 | 15.40144 | 16321 ft | 358 kts | 120° |
| 2026-05-04 18:34 | 46.31941 | 15.43315 | 15861 ft | 355 kts | 120° |
| 2026-05-04 18:34 | 46.30793 | 15.46458 | 15416 ft | 352 kts | 120° |
| 2026-05-04 18:35 | 46.29650 | 15.49575 | 14967 ft | 350 kts | 120° |
| 2026-05-04 18:35 | 46.28514 | 15.52674 | 14552 ft | 347 kts | 120° |
| 2026-05-04 18:35 | 46.27388 | 15.55752 | 14112 ft | 345 kts | 120° |
| 2026-05-04 18:35 | 46.26263 | 15.58820 | 13692 ft | 343 kts | 120° |
| 2026-05-04 18:36 | 46.25156 | 15.61828 | 13214 ft | 341 kts | 120° |
| 2026-05-04 18:36 | 46.24046 | 15.64844 | 12741 ft | 339 kts | 120° |
| 2026-05-04 18:36 | 46.22942 | 15.67849 | 12260 ft | 337 kts | 120° |
| 2026-05-04 18:36 | 46.21841 | 15.70842 | 11798 ft | 336 kts | 120° |
| 2026-05-04 18:37 | 46.20759 | 15.73778 | 11321 ft | 334 kts | 120° |
| 2026-05-04 18:37 | 46.19666 | 15.76734 | 10810 ft | 333 kts | 121° |
| 2026-05-04 18:37 | 46.18587 | 15.79650 | 10601 ft | 323 kts | 121° |
| 2026-05-04 18:37 | 46.17543 | 15.82474 | 10469 ft | 312 kts | 121° |
| 2026-05-04 18:38 | 46.16548 | 15.85173 | 10339 ft | 301 kts | 121° |
| 2026-05-04 18:38 | 46.15570 | 15.87821 | 10064 ft | 296 kts | 121° |
| 2026-05-04 18:38 | 46.14599 | 15.90437 | 9727 ft | 294 kts | 121° |
| 2026-05-04 18:38 | 46.13643 | 15.93003 | 9357 ft | 292 kts | 122° |
| 2026-05-04 18:39 | 46.12682 | 15.95579 | 8983 ft | 290 kts | 122° |
| 2026-05-04 18:39 | 46.11737 | 15.98121 | 8745 ft | 283 kts | 122° |
| 2026-05-04 18:39 | 46.10824 | 16.00581 | 8619 ft | 273 kts | 122° |
| 2026-05-04 18:39 | 46.09953 | 16.02929 | 8428 ft | 265 kts | 122° |
| 2026-05-04 18:40 | 46.09089 | 16.05249 | 8132 ft | 262 kts | 122° |
| 2026-05-04 18:40 | 46.08223 | 16.07567 | 7799 ft | 260 kts | 122° |
| 2026-05-04 18:40 | 46.07373 | 16.09838 | 7446 ft | 258 kts | 122° |
| 2026-05-04 18:40 | 46.06518 | 16.12113 | 7063 ft | 257 kts | 122° |
| 2026-05-04 18:41 | 46.05629 | 16.14327 | 6735 ft | 253 kts | 131° |
| 2026-05-04 18:41 | 46.04369 | 16.16016 | 6401 ft | 245 kts | 146° |
| 2026-05-04 18:41 | 46.03047 | 16.17473 | 6279 ft | 234 kts | 147° |
| 2026-05-04 18:41 | 46.01778 | 16.18866 | 6141 ft | 224 kts | 146° |
| 2026-05-04 18:42 | 46.00570 | 16.20195 | 6005 ft | 213 kts | 147° |
| 2026-05-04 18:42 | 45.99428 | 16.21451 | 5914 ft | 197 kts | 147° |
| 2026-05-04 18:42 | 45.98378 | 16.22606 | 5610 ft | 191 kts | 147° |
| 2026-05-04 18:42 | 45.97318 | 16.23763 | 5228 ft | 191 kts | 146° |
| 2026-05-04 18:43 | 45.96253 | 16.24920 | 4862 ft | 191 kts | 146° |
| 2026-05-04 18:43 | 45.95196 | 16.26071 | 4516 ft | 191 kts | 146° |
| 2026-05-04 18:43 | 45.94148 | 16.27219 | 4205 ft | 192 kts | 146° |
| 2026-05-04 18:43 | 45.93083 | 16.28383 | 3933 ft | 191 kts | 146° |
| 2026-05-04 18:44 | 45.92015 | 16.29546 | 3815 ft | 193 kts | 147° |
| 2026-05-04 18:44 | 45.91234 | 16.30125 | 3726 ft | 190 kts | 167° |
| 2026-05-04 18:44 | 45.89548 | 16.29892 | 3586 ft | 183 kts | 210° |
| 2026-05-04 18:44 | 45.88599 | 16.28718 | 3518 ft | 181 kts | 229° |
| 2026-05-04 18:45 | 45.87743 | 16.27401 | 3498 ft | 180 kts | 229° |
| 2026-05-04 18:45 | 45.86887 | 16.26091 | 3502 ft | 179 kts | 229° |
| 2026-05-04 18:45 | 45.86066 | 16.24840 | 3477 ft | 167 kts | 229° |
| 2026-05-04 18:45 | 45.85275 | 16.23633 | 3267 ft | 164 kts | 229° |
| 2026-05-04 18:46 | 45.84502 | 16.22452 | 3059 ft | 161 kts | 229° |
| 2026-05-04 18:46 | 45.83744 | 16.21296 | 2846 ft | 158 kts | 229° |
| 2026-05-04 18:46 | 45.82988 | 16.20144 | 2637 ft | 158 kts | 230° |
| 2026-05-04 18:46 | 45.82235 | 16.18994 | 2437 ft | 158 kts | 229° |
| 2026-05-04 18:47 | 45.81485 | 16.17850 | 2227 ft | 156 kts | 229° |
| 2026-05-04 18:47 | 45.80762 | 16.16749 | 2021 ft | 146 kts | 230° |
| 2026-05-04 18:47 | 45.80103 | 16.15751 | 1846 ft | 132 kts | 230° |
| 2026-05-04 18:47 | 45.79483 | 16.14809 | 1675 ft | 128 kts | 230° |
| 2026-05-04 18:48 | 45.78882 | 16.13893 | 1502 ft | 126 kts | 229° |
| 2026-05-04 18:48 | 45.78280 | 16.12963 | 1302 ft | 130 kts | 229° |
| 2026-05-04 18:48 | 45.77660 | 16.12005 | 1072 ft | 131 kts | 227° |
| 2026-05-04 18:48 | 45.77049 | 16.11076 | 906 ft | 125 kts | 229° |
| 2026-05-04 18:49 | 45.76458 | 16.10169 | 724 ft | 126 kts | 227° |
| 2026-05-04 18:49 | 45.75860 | 16.09260 | 592 ft | 124 kts | 228° |
| 2026-05-04 18:49 | 45.75263 | 16.08352 | 425 ft | 126 kts | 227° |
| 2026-05-04 18:49 | 45.74686 | 16.07472 | 360 ft | 109 kts | 227° |
| 2026-05-04 18:50 | 45.74277 | 16.06852 | 363 ft | 61 kts | 226° |
| 2026-05-04 18:50 | 45.74087 | 16.06564 | 361 ft | 30 kts | 227° |
| 2026-05-04 18:50 | 45.73953 | 16.06361 | 363 ft | 22 kts | 226° |
| 2026-05-04 18:50 | 45.73870 | 16.06245 | 361 ft | 10 kts | 200° |
| 2026-05-04 18:51 | 45.73813 | 16.06300 | 360 ft | 11 kts | 136° |
| 2026-05-04 18:51 | 45.73752 | 16.06379 | 359 ft | 9 kts | 138° |
| 2026-05-04 18:51 | 45.73756 | 16.06457 | 364 ft | 9 kts | 47° |
| 2026-05-04 18:51 | 45.73800 | 16.06524 | 363 ft | 9 kts | 47° |
| 2026-05-04 18:52 | 45.73850 | 16.06599 | 359 ft | 11 kts | 46° |
| 2026-05-04 18:52 | 45.73908 | 16.06688 | 363 ft | 13 kts | 46° |
| 2026-05-04 18:52 | 45.73976 | 16.06790 | 359 ft | 15 kts | 46° |
| 2026-05-04 18:52 | 45.74052 | 16.06905 | 359 ft | 17 kts | 46° |
| 2026-05-04 18:53 | 45.74136 | 16.07033 | 362 ft | 18 kts | 46° |
| 2026-05-04 18:53 | 45.74210 | 16.07145 | 359 ft | 10 kts | 49° |
| 2026-05-04 18:53 | 45.74195 | 16.07237 | 361 ft | 10 kts | 133° |
| 2026-05-04 18:53 | 45.74147 | 16.07299 | 359 ft | 9 kts | 137° |
| 2026-05-04 18:54 | 45.74105 | 16.07356 | 360 ft | 8 kts | 137° |
| 2026-05-04 18:54 | 45.74065 | 16.07417 | 359 ft | 8 kts | 120° |
| 2026-05-04 18:54 | 45.74075 | 16.07488 | 362 ft | 8 kts | 53° |
| 2026-05-04 18:54 | 45.74113 | 16.07547 | 362 ft | 9 kts | 46° |
| 2026-05-04 18:55 | 45.74156 | 16.07612 | 359 ft | 10 kts | 47° |
| 2026-05-04 18:55 | 45.74257 | 16.07765 | 359 ft | 9 kts | 49° |
| 2026-05-04 18:55 | 45.74237 | 16.07835 | 358 ft | 9 kts | 137° |
| 2026-05-04 18:56 | 45.74204 | 16.07879 | 359 ft | 1 kts | 136° |
| 2026-05-04 18:56 | 45.74203 | 16.07880 | 359 ft | 0 kts | 136° |